Terminal Aerodrome Forecast
Issued by NWS

Home | Current Version | Previous Version | Text Only | Print | Product List | Glossary On
Versions: 1 2 3 4 5 6 7 8 9 10 11 12 13 14 15 16 17 18 19
000
FTUS45 KSLC 010543
TAFOGD
TAF
KOGD 010543Z 0106/0206 07014G25KT P6SM BKN060 BKN100
     FM011100 08020G32KT P6SM SCT070 BKN120
     FM012000 04013G22KT P6SM SCT120
     FM020200 10010G16KT P6SM SKC=

USA.gov is the U.S. government's official web portal to all federal, state and local government web resources and services.